This is the latest recevied weather packets stored in our database for station/object KP4CRN. If no packets are shown the sender has not sent any weather packets the latest 10 day(s).
| Time | Temp. | Humidity | Pressure | Rain* | Wind** | Luminosity | Snow |
|---|---|---|---|---|---|---|---|
| 1777738148 | 31.67° C | 69% | 1016.5 hPa | 0 mm | - | 350 W/m² | - |
| 1777737845 | 31.67° C | 68% | 1016.7 hPa | 0 mm | - | 200 W/m² | - |
| 1777737544 | 32.22° C | 67% | 1016.9 hPa | 0 mm | - | 926 W/m² | - |
| 1777737241 | 31.11° C | 70% | 1016.8 hPa | 0 mm | - | 1001 W/m² | - |
| 1777736937 | 32.22° C | 68% | 1016.9 hPa | 0 mm | - | 282 W/m² | - |
| 1777736026 | 32.22° C | 68% | 1017.1 hPa | 0 mm | - | 877 W/m² | - |
| 1777735723 | 31.67° C | 70% | 1017.4 hPa | 0 mm | - | 575 W/m² | - |
| 1777735420 | 31.67° C | 67% | 1017.2 hPa | 0 mm | - | 908 W/m² | - |
| 1777735118 | 31.67° C | 69% | 1017.5 hPa | 0 mm | - | 686 W/m² | - |
| 1777734814 | 31.67° C | 70% | 1017.4 hPa | 0 mm | - | 825 W/m² | - |
| 1777734512 | 31.67° C | 70% | 1017.4 hPa | 0 mm | - | 810 W/m² | - |
| 1777734208 | 31.11° C | 71% | 1017.4 hPa | 0 mm | - | 792 W/m² | - |
| 1777733905 | 31.67° C | 71% | 1017.5 hPa | 0 mm | - | 316 W/m² | - |
| 1777733602 | 30.56° C | 73% | 1017.5 hPa | 0 mm | - | 789 W/m² | - |
| 1777733298 | 30.56° C | 73% | 1017.5 hPa | 0 mm | - | 812 W/m² | - |
| 1777732995 | 30.56° C | 74% | 1017.7 hPa | 0 mm | - | 729 W/m² | - |
| 1777732691 | 31.11° C | 72% | 1017.6 hPa | 0 mm | - | 836 W/m² | - |
| 1777732388 | 31.11° C | 75% | 1017.6 hPa | 0 mm | - | 772 W/m² | - |
| 1777732086 | 30.56° C | 75% | 1017.8 hPa | 0 mm | - | 755 W/m² | - |
| 1777731783 | 30° C | 76% | 1017.8 hPa | 0 mm | - | 809 W/m² | - |
| 1777731479 | 30° C | 77% | 1017.9 hPa | 0 mm | - | 228 W/m² | - |
| 1777731178 | 29.44° C | 78% | 1017.8 hPa | 0 mm | - | 266 W/m² | - |
| 1777730875 | 29.44° C | 79% | 1017.5 hPa | 0 mm | - | 201 W/m² | - |
| 1777730573 | 29.44° C | 78% | 1017.7 hPa | 0 mm | - | 197 W/m² | - |
| 1777730268 | 30° C | 78% | 1017.7 hPa | 0 mm | - | 212 W/m² | - |
* Rain latest hour (hover to see other rain measurements)
** Current wind speed in m/s (hover to see current wind gust speed)